sensor_id;sensor_type;location;lat;lon;timestamp;temperature;humidity
16732;DHT22;8484;50.904;9.192;2024-03-23T00:56:03;7.40;99.90
16732;DHT22;8484;50.904;9.192;2024-03-23T00:58:30;7.60;99.90
16732;DHT22;8484;50.904;9.192;2024-03-23T01:00:56;7.80;99.90
16732;DHT22;8484;50.904;9.192;2024-03-23T01:03:23;7.90;99.90
16732;DHT22;8484;50.904;9.192;2024-03-23T01:05:49;7.90;99.90
16732;DHT22;8484;50.904;9.192;2024-03-23T01:08:15;9.30;99.90
16732;DHT22;8484;50.904;9.192;2024-03-23T01:10:43;7.80;99.90
16732;DHT22;8484;50.904;9.192;2024-03-23T01:13:09;7.80;99.90
16732;DHT22;8484;50.904;9.192;2024-03-23T01:15:35;7.90;99.90
16732;DHT22;8484;50.904;9.192;2024-03-23T01:18:03;7.90;99.90
16732;DHT22;8484;50.904;9.192;2024-03-23T01:20:29;8.10;99.90
16732;DHT22;8484;50.904;9.192;2024-03-23T01:22:55;8.80;99.90
16732;DHT22;8484;50.904;9.192;2024-03-23T01:25:21;8.30;99.90
16732;DHT22;8484;50.904;9.192;2024-03-23T01:27:49;8.30;99.90
16732;DHT22;8484;50.904;9.192;2024-03-23T01:30:15;8.50;99.90
16732;DHT22;8484;50.904;9.192;2024-03-23T01:32:42;8.60;99.90
16732;DHT22;8484;50.904;9.192;2024-03-23T01:35:08;8.60;99.90
16732;DHT22;8484;50.904;9.192;2024-03-23T01:37:35;8.70;99.90
16732;DHT22;8484;50.904;9.192;2024-03-23T01:40:01;8.70;99.90
16732;DHT22;8484;50.904;9.192;2024-03-23T01:42:29;8.80;99.90
16732;DHT22;8484;50.904;9.192;2024-03-23T01:44:56;8.70;99.90
16732;DHT22;8484;50.904;9.192;2024-03-23T01:47:23;8.70;99.90
16732;DHT22;8484;50.904;9.192;2024-03-23T01:49:49;8.60;99.90
16732;DHT22;8484;50.904;9.192;2024-03-23T01:52:17;8.60;99.90
16732;DHT22;8484;50.904;9.192;2024-03-23T01:54:43;8.80;99.90
16732;DHT22;8484;50.904;9.192;2024-03-23T01:57:11;8.80;99.90
16732;DHT22;8484;50.904;9.192;2024-03-23T01:59:58;8.80;99.90
16732;DHT22;8484;50.904;9.192;2024-03-23T02:02:44;8.80;99.90
16732;DHT22;8484;50.904;9.192;2024-03-23T02:05:29;8.90;99.90
16732;DHT22;8484;50.904;9.192;2024-03-23T02:08:17;9.00;99.90
16732;DHT22;8484;50.904;9.192;2024-03-23T02:11:02;8.90;99.90
16732;DHT22;8484;50.904;9.192;2024-03-23T02:13:47;8.90;99.90
16732;DHT22;8484;50.904;9.192;2024-03-23T02:16:33;9.20;99.90
16732;DHT22;8484;50.904;9.192;2024-03-23T02:19:19;8.90;99.90
16732;DHT22;8484;50.904;9.192;2024-03-23T02:22:04;8.90;99.90
16732;DHT22;8484;50.904;9.192;2024-03-23T02:24:51;8.90;99.90
16732;DHT22;8484;50.904;9.192;2024-03-23T02:27:35;8.90;99.90
16732;DHT22;8484;50.904;9.192;2024-03-23T02:30:23;8.90;99.90
16732;DHT22;8484;50.904;9.192;2024-03-23T02:33:07;9.00;99.90
16732;DHT22;8484;50.904;9.192;2024-03-23T02:35:56;9.00;99.90
16732;DHT22;8484;50.904;9.192;2024-03-23T02:38:40;9.00;99.90
16732;DHT22;8484;50.904;9.192;2024-03-23T02:41:27;9.00;99.90
16732;DHT22;8484;50.904;9.192;2024-03-23T02:44:12;9.10;99.90
16732;DHT22;8484;50.904;9.192;2024-03-23T02:46:58;9.50;99.90
16732;DHT22;8484;50.904;9.192;2024-03-23T02:49:42;8.80;99.90
16732;DHT22;8484;50.904;9.192;2024-03-23T02:52:23;8.80;99.90
16732;DHT22;8484;50.904;9.192;2024-03-23T02:55:07;8.90;99.90
16732;DHT22;8484;50.904;9.192;2024-03-23T02:57:54;8.80;99.90
16732;DHT22;8484;50.904;9.192;2024-03-23T03:00:39;8.90;99.90
16732;DHT22;8484;50.904;9.192;2024-03-23T03:03:26;8.60;99.90
16732;DHT22;8484;50.904;9.192;2024-03-23T03:06:10;8.60;99.90
16732;DHT22;8484;50.904;9.192;2024-03-23T03:08:56;8.60;99.90
16732;DHT22;8484;50.904;9.192;2024-03-23T03:11:41;8.50;99.90
16732;DHT22;8484;50.904;9.192;2024-03-23T03:14:28;8.50;99.90
16732;DHT22;8484;50.904;9.192;2024-03-23T03:17:12;8.20;99.90
16732;DHT22;8484;50.904;9.192;2024-03-23T03:19:59;8.20;99.90
16732;DHT22;8484;50.904;9.192;2024-03-23T03:22:44;7.90;99.90
16732;DHT22;8484;50.904;9.192;2024-03-23T03:25:32;7.80;99.90
16732;DHT22;8484;50.904;9.192;2024-03-23T03:28:16;7.80;99.90
16732;DHT22;8484;50.904;9.192;2024-03-23T03:31:03;7.60;99.90
16732;DHT22;8484;50.904;9.192;2024-03-23T03:33:50;7.30;99.90
16732;DHT22;8484;50.904;9.192;2024-03-23T03:36:35;7.30;99.90
16732;DHT22;8484;50.904;9.192;2024-03-23T03:39:20;7.80;99.90
16732;DHT22;8484;50.904;9.192;2024-03-23T03:42:07;7.10;99.90
16732;DHT22;8484;50.904;9.192;2024-03-23T03:44:51;7.20;99.90
16732;DHT22;8484;50.904;9.192;2024-03-23T03:47:39;7.10;99.90
16732;DHT22;8484;50.904;9.192;2024-03-23T03:50:31;7.00;99.90
16732;DHT22;8484;50.904;9.192;2024-03-23T03:53:16;7.00;99.90
16732;DHT22;8484;50.904;9.192;2024-03-23T03:56:01;6.80;99.90
16732;DHT22;8484;50.904;9.192;2024-03-23T03:58:47;6.70;99.90
16732;DHT22;8484;50.904;9.192;2024-03-23T04:01:32;6.70;99.90
16732;DHT22;8484;50.904;9.192;2024-03-23T04:04:19;6.90;99.90
16732;DHT22;8484;50.904;9.192;2024-03-23T04:07:04;6.70;99.90
16732;DHT22;8484;50.904;9.192;2024-03-23T04:09:50;6.80;99.90
16732;DHT22;8484;50.904;9.192;2024-03-23T04:12:35;6.80;99.90
16732;DHT22;8484;50.904;9.192;2024-03-23T04:15:20;6.80;99.90
16732;DHT22;8484;50.904;9.192;2024-03-23T04:18:05;6.70;99.90
16732;DHT22;8484;50.904;9.192;2024-03-23T04:20:52;6.70;99.90
16732;DHT22;8484;50.904;9.192;2024-03-23T04:23:37;6.50;99.90
16732;DHT22;8484;50.904;9.192;2024-03-23T04:26:22;6.60;99.90
16732;DHT22;8484;50.904;9.192;2024-03-23T04:29:08;6.80;99.90
16732;DHT22;8484;50.904;9.192;2024-03-23T04:31:53;6.60;99.90
16732;DHT22;8484;50.904;9.192;2024-03-23T04:34:39;6.60;99.90
16732;DHT22;8484;50.904;9.192;2024-03-23T04:37:25;6.40;99.90
16732;DHT22;8484;50.904;9.192;2024-03-23T04:40:11;6.30;99.90
16732;DHT22;8484;50.904;9.192;2024-03-23T04:42:56;6.20;99.90
16732;DHT22;8484;50.904;9.192;2024-03-23T04:45:42;6.20;99.90
16732;DHT22;8484;50.904;9.192;2024-03-23T04:48:27;6.20;99.90
16732;DHT22;8484;50.904;9.192;2024-03-23T04:51:20;6.10;99.90
16732;DHT22;8484;50.904;9.192;2024-03-23T04:54:07;6.10;99.90
16732;DHT22;8484;50.904;9.192;2024-03-23T04:56:53;6.30;99.90
16732;DHT22;8484;50.904;9.192;2024-03-23T04:59:39;6.20;99.90
16732;DHT22;8484;50.904;9.192;2024-03-23T05:02:23;6.10;99.90
16732;DHT22;8484;50.904;9.192;2024-03-23T05:05:11;6.00;99.90
16732;DHT22;8484;50.904;9.192;2024-03-23T05:07:56;6.00;99.90
16732;DHT22;8484;50.904;9.192;2024-03-23T05:10:43;5.90;99.90
16732;DHT22;8484;50.904;9.192;2024-03-23T05:13:28;5.80;99.90
16732;DHT22;8484;50.904;9.192;2024-03-23T05:16:14;6.00;99.90
16732;DHT22;8484;50.904;9.192;2024-03-23T05:18:58;5.90;99.90
16732;DHT22;8484;50.904;9.192;2024-03-23T05:21:44;5.90;99.90
16732;DHT22;8484;50.904;9.192;2024-03-23T05:24:29;5.90;99.90
16732;DHT22;8484;50.904;9.192;2024-03-23T05:27:16;5.70;99.90
16732;DHT22;8484;50.904;9.192;2024-03-23T05:30:01;5.60;99.90
16732;DHT22;8484;50.904;9.192;2024-03-23T05:32:48;5.70;99.90
16732;DHT22;8484;50.904;9.192;2024-03-23T05:35:33;5.50;99.90
16732;DHT22;8484;50.904;9.192;2024-03-23T05:38:18;5.60;99.90
16732;DHT22;8484;50.904;9.192;2024-03-23T05:41:07;5.50;99.90
16732;DHT22;8484;50.904;9.192;2024-03-23T05:43:53;5.50;99.90
16732;DHT22;8484;50.904;9.192;2024-03-23T05:46:41;5.50;99.90
16732;DHT22;8484;50.904;9.192;2024-03-23T05:49:27;5.40;99.90
16732;DHT22;8484;50.904;9.192;2024-03-23T05:52:13;5.40;99.90
16732;DHT22;8484;50.904;9.192;2024-03-23T05:54:59;5.40;99.90
16732;DHT22;8484;50.904;9.192;2024-03-23T05:57:45;4.80;99.90
16732;DHT22;8484;50.904;9.192;2024-03-23T06:00:31;5.10;99.90
16732;DHT22;8484;50.904;9.192;2024-03-23T06:03:17;5.00;99.90
16732;DHT22;8484;50.904;9.192;2024-03-23T06:06:03;4.90;99.90
16732;DHT22;8484;50.904;9.192;2024-03-23T06:08:47;4.90;99.90
16732;DHT22;8484;50.904;9.192;2024-03-23T06:11:33;4.80;99.90
16732;DHT22;8484;50.904;9.192;2024-03-23T06:14:18;4.80;99.90
16732;DHT22;8484;50.904;9.192;2024-03-23T06:17:05;4.80;99.90
16732;DHT22;8484;50.904;9.192;2024-03-23T06:19:50;4.80;99.90
16732;DHT22;8484;50.904;9.192;2024-03-23T06:22:36;5.00;99.90
16732;DHT22;8484;50.904;9.192;2024-03-23T06:25:21;4.90;99.90
16732;DHT22;8484;50.904;9.192;2024-03-23T06:28:06;4.90;99.90
16732;DHT22;8484;50.904;9.192;2024-03-23T06:30:51;4.90;99.90
16732;DHT22;8484;50.904;9.192;2024-03-23T06:33:38;4.90;99.90
16732;DHT22;8484;50.904;9.192;2024-03-23T06:36:24;5.00;99.90
16732;DHT22;8484;50.904;9.192;2024-03-23T06:39:09;4.80;99.90
16732;DHT22;8484;50.904;9.192;2024-03-23T06:41:56;5.10;99.90
16732;DHT22;8484;50.904;9.192;2024-03-23T06:44:41;5.10;99.90
16732;DHT22;8484;50.904;9.192;2024-03-23T06:47:27;5.10;99.90
16732;DHT22;8484;50.904;9.192;2024-03-23T06:50:13;5.00;99.90
16732;DHT22;8484;50.904;9.192;2024-03-23T06:52:58;4.90;99.90
16732;DHT22;8484;50.904;9.192;2024-03-23T06:55:50;5.00;99.90
16732;DHT22;8484;50.904;9.192;2024-03-23T06:58:36;5.00;99.90
16732;DHT22;8484;50.904;9.192;2024-03-23T07:01:22;5.00;99.90
16732;DHT22;8484;50.904;9.192;2024-03-23T07:04:06;4.90;99.90
16732;DHT22;8484;50.904;9.192;2024-03-23T07:06:54;4.80;99.90
16732;DHT22;8484;50.904;9.192;2024-03-23T07:09:38;5.60;99.90
16732;DHT22;8484;50.904;9.192;2024-03-23T07:12:24;5.00;99.90
16732;DHT22;8484;50.904;9.192;2024-03-23T07:15:09;5.00;99.90
16732;DHT22;8484;50.904;9.192;2024-03-23T07:17:55;4.90;99.90
16732;DHT22;8484;50.904;9.192;2024-03-23T07:20:39;5.00;99.90
16732;DHT22;8484;50.904;9.192;2024-03-23T07:23:26;4.80;99.90
16732;DHT22;8484;50.904;9.192;2024-03-23T07:26:11;4.80;99.90
16732;DHT22;8484;50.904;9.192;2024-03-23T07:28:57;5.00;99.90
16732;DHT22;8484;50.904;9.192;2024-03-23T07:31:42;4.90;99.90
16732;DHT22;8484;50.904;9.192;2024-03-23T07:34:27;4.90;99.90
16732;DHT22;8484;50.904;9.192;2024-03-23T07:37:12;4.90;99.90
16732;DHT22;8484;50.904;9.192;2024-03-23T07:39:59;4.90;99.90
16732;DHT22;8484;50.904;9.192;2024-03-23T07:42:44;4.90;99.90
16732;DHT22;8484;50.904;9.192;2024-03-23T07:45:29;4.90;99.90
16732;DHT22;8484;50.904;9.192;2024-03-23T07:48:14;5.00;99.90
16732;DHT22;8484;50.904;9.192;2024-03-23T07:51:00;5.00;99.90
16732;DHT22;8484;50.904;9.192;2024-03-23T07:53:46;5.00;99.90
16732;DHT22;8484;50.904;9.192;2024-03-23T07:56:33;5.20;99.90
16732;DHT22;8484;50.904;9.192;2024-03-23T07:59:18;5.30;99.90
16732;DHT22;8484;50.904;9.192;2024-03-23T08:02:04;5.20;99.90
16732;DHT22;8484;50.904;9.192;2024-03-23T08:04:50;5.20;99.90
16732;DHT22;8484;50.904;9.192;2024-03-23T08:07:35;5.30;99.90
16732;DHT22;8484;50.904;9.192;2024-03-23T08:10:21;5.10;99.90
16732;DHT22;8484;50.904;9.192;2024-03-23T08:13:07;5.00;99.90
16732;DHT22;8484;50.904;9.192;2024-03-23T08:15:56;5.00;99.90
16732;DHT22;8484;50.904;9.192;2024-03-23T08:18:40;5.10;99.90
16732;DHT22;8484;50.904;9.192;2024-03-23T08:21:26;5.30;99.90
16732;DHT22;8484;50.904;9.192;2024-03-23T08:24:11;5.30;99.90
16732;DHT22;8484;50.904;9.192;2024-03-23T08:26:56;5.20;99.90
16732;DHT22;8484;50.904;9.192;2024-03-23T08:29:50;5.20;99.90
16732;DHT22;8484;50.904;9.192;2024-03-23T08:32:36;5.30;99.90
16732;DHT22;8484;50.904;9.192;2024-03-23T08:35:21;5.50;99.90
16732;DHT22;8484;50.904;9.192;2024-03-23T08:38:06;5.70;99.90
16732;DHT22;8484;50.904;9.192;2024-03-23T08:40:59;5.70;99.90
16732;DHT22;8484;50.904;9.192;2024-03-23T08:43:44;5.60;99.90
16732;DHT22;8484;50.904;9.192;2024-03-23T08:46:31;5.60;99.90
16732;DHT22;8484;50.904;9.192;2024-03-23T08:49:16;5.70;99.90
16732;DHT22;8484;50.904;9.192;2024-03-23T08:52:02;5.80;99.90
16732;DHT22;8484;50.904;9.192;2024-03-23T08:54:54;5.70;99.90
16732;DHT22;8484;50.904;9.192;2024-03-23T08:57:46;5.70;99.90
16732;DHT22;8484;50.904;9.192;2024-03-23T09:00:31;5.40;99.90
16732;DHT22;8484;50.904;9.192;2024-03-23T09:03:18;5.40;99.90
16732;DHT22;8484;50.904;9.192;2024-03-23T09:06:07;5.50;99.90
16732;DHT22;8484;50.904;9.192;2024-03-23T09:08:52;5.50;99.90
16732;DHT22;8484;50.904;9.192;2024-03-23T09:11:37;5.40;99.90
16732;DHT22;8484;50.904;9.192;2024-03-23T09:14:23;5.30;99.90
16732;DHT22;8484;50.904;9.192;2024-03-23T09:17:07;5.30;99.90
16732;DHT22;8484;50.904;9.192;2024-03-23T09:19:55;5.20;99.90
16732;DHT22;8484;50.904;9.192;2024-03-23T09:22:48;5.60;99.90
16732;DHT22;8484;50.904;9.192;2024-03-23T09:25:36;5.30;99.90
16732;DHT22;8484;50.904;9.192;2024-03-23T09:28:28;5.80;99.90
16732;DHT22;8484;50.904;9.192;2024-03-23T09:31:12;6.00;99.90
16732;DHT22;8484;50.904;9.192;2024-03-23T09:33:59;6.70;99.90
16732;DHT22;8484;50.904;9.192;2024-03-23T09:36:46;6.90;99.90
16732;DHT22;8484;50.904;9.192;2024-03-23T09:39:32;7.10;99.90
16732;DHT22;8484;50.904;9.192;2024-03-23T09:42:16;7.70;99.90
16732;DHT22;8484;50.904;9.192;2024-03-23T09:45:02;7.40;99.90
16732;DHT22;8484;50.904;9.192;2024-03-23T09:47:49;8.60;99.90
16732;DHT22;8484;50.904;9.192;2024-03-23T09:50:37;8.60;99.90
16732;DHT22;8484;50.904;9.192;2024-03-23T09:53:24;8.10;99.90
16732;DHT22;8484;50.904;9.192;2024-03-23T09:56:08;9.80;99.90
16732;DHT22;8484;50.904;9.192;2024-03-23T09:59:00;8.90;99.90
16732;DHT22;8484;50.904;9.192;2024-03-23T10:01:44;8.90;99.90
16732;DHT22;8484;50.904;9.192;2024-03-23T10:04:36;8.90;99.90
16732;DHT22;8484;50.904;9.192;2024-03-23T10:07:21;9.70;99.90
16732;DHT22;8484;50.904;9.192;2024-03-23T10:10:12;9.80;99.90
16732;DHT22;8484;50.904;9.192;2024-03-23T10:12:56;9.80;99.90
16732;DHT22;8484;50.904;9.192;2024-03-23T10:15:42;8.90;99.90
16732;DHT22;8484;50.904;9.192;2024-03-23T10:18:27;8.60;99.90
16732;DHT22;8484;50.904;9.192;2024-03-23T10:21:14;7.30;99.90
16732;DHT22;8484;50.904;9.192;2024-03-23T10:24:08;7.40;99.90
16732;DHT22;8484;50.904;9.192;2024-03-23T10:26:57;7.20;99.90
16732;DHT22;8484;50.904;9.192;2024-03-23T10:29:41;7.40;99.90
16732;DHT22;8484;50.904;9.192;2024-03-23T10:32:27;8.30;99.90
16732;DHT22;8484;50.904;9.192;2024-03-23T10:35:16;9.80;99.90
16732;DHT22;8484;50.904;9.192;2024-03-23T10:38:05;10.80;99.90
16732;DHT22;8484;50.904;9.192;2024-03-23T10:40:50;12.90;99.90
16732;DHT22;8484;50.904;9.192;2024-03-23T10:43:38;11.50;99.90
16732;DHT22;8484;50.904;9.192;2024-03-23T10:46:24;9.60;99.90
16732;DHT22;8484;50.904;9.192;2024-03-23T10:49:08;9.50;99.90
16732;DHT22;8484;50.904;9.192;2024-03-23T10:51:54;9.50;99.90
16732;DHT22;8484;50.904;9.192;2024-03-23T10:54:41;9.10;99.90
16732;DHT22;8484;50.904;9.192;2024-03-23T10:57:34;10.00;99.90
16732;DHT22;8484;50.904;9.192;2024-03-23T11:00:20;11.00;99.90
16732;DHT22;8484;50.904;9.192;2024-03-23T11:03:31;11.20;99.90
16732;DHT22;8484;50.904;9.192;2024-03-23T11:06:34;11.10;99.90
16732;DHT22;8484;50.904;9.192;2024-03-23T11:09:39;11.40;99.90
16732;DHT22;8484;50.904;9.192;2024-03-23T11:12:28;12.80;99.90
16732;DHT22;8484;50.904;9.192;2024-03-23T11:15:15;13.00;99.90
16732;DHT22;8484;50.904;9.192;2024-03-23T11:18:06;11.90;99.90
16732;DHT22;8484;50.904;9.192;2024-03-23T11:20:52;12.00;99.90
16732;DHT22;8484;50.904;9.192;2024-03-23T11:23:37;13.00;99.90
16732;DHT22;8484;50.904;9.192;2024-03-23T11:26:23;11.40;99.90
16732;DHT22;8484;50.904;9.192;2024-03-23T11:29:11;10.60;99.90
16732;DHT22;8484;50.904;9.192;2024-03-23T11:31:56;10.10;99.90
16732;DHT22;8484;50.904;9.192;2024-03-23T11:34:44;10.30;99.90
16732;DHT22;8484;50.904;9.192;2024-03-23T11:37:29;10.20;99.90
16732;DHT22;8484;50.904;9.192;2024-03-23T11:40:18;9.00;99.90
16732;DHT22;8484;50.904;9.192;2024-03-23T11:43:04;7.90;99.90
16732;DHT22;8484;50.904;9.192;2024-03-23T11:45:51;6.80;99.90
16732;DHT22;8484;50.904;9.192;2024-03-23T11:48:37;6.30;99.90
16732;DHT22;8484;50.904;9.192;2024-03-23T11:51:23;6.30;99.90
16732;DHT22;8484;50.904;9.192;2024-03-23T11:54:08;7.30;99.90
16732;DHT22;8484;50.904;9.192;2024-03-23T11:56:56;8.10;99.90
16732;DHT22;8484;50.904;9.192;2024-03-23T11:59:42;7.80;99.90
16732;DHT22;8484;50.904;9.192;2024-03-23T12:02:28;7.40;99.90
16732;DHT22;8484;50.904;9.192;2024-03-23T12:05:14;7.10;99.90
16732;DHT22;8484;50.904;9.192;2024-03-23T12:08:21;7.00;99.90
16732;DHT22;8484;50.904;9.192;2024-03-23T12:11:08;7.20;99.90
16732;DHT22;8484;50.904;9.192;2024-03-23T12:13:59;7.00;99.90
16732;DHT22;8484;50.904;9.192;2024-03-23T12:16:45;7.00;99.90
16732;DHT22;8484;50.904;9.192;2024-03-23T12:19:30;7.00;99.90
16732;DHT22;8484;50.904;9.192;2024-03-23T12:22:20;7.00;99.90
16732;DHT22;8484;50.904;9.192;2024-03-23T12:25:07;6.90;99.90
16732;DHT22;8484;50.904;9.192;2024-03-23T12:27:52;7.10;99.90
16732;DHT22;8484;50.904;9.192;2024-03-23T12:30:39;8.90;99.90
16732;DHT22;8484;50.904;9.192;2024-03-23T12:33:24;9.60;99.90
16732;DHT22;8484;50.904;9.192;2024-03-23T12:36:10;10.70;99.90
16732;DHT22;8484;50.904;9.192;2024-03-23T12:38:54;10.80;99.90
16732;DHT22;8484;50.904;9.192;2024-03-23T12:41:41;11.30;99.90
16732;DHT22;8484;50.904;9.192;2024-03-23T12:44:26;11.10;99.90
16732;DHT22;8484;50.904;9.192;2024-03-23T12:47:12;10.80;99.90
16732;DHT22;8484;50.904;9.192;2024-03-23T12:49:58;11.40;99.90
16732;DHT22;8484;50.904;9.192;2024-03-23T12:52:42;11.90;99.90
16732;DHT22;8484;50.904;9.192;2024-03-23T12:55:28;10.60;99.90
16732;DHT22;8484;50.904;9.192;2024-03-23T12:58:14;10.30;99.90
16732;DHT22;8484;50.904;9.192;2024-03-23T13:01:03;10.30;99.90
16732;DHT22;8484;50.904;9.192;2024-03-23T13:03:47;9.50;99.90
16732;DHT22;8484;50.904;9.192;2024-03-23T13:06:33;9.00;99.90
16732;DHT22;8484;50.904;9.192;2024-03-23T13:09:19;8.60;99.90
16732;DHT22;8484;50.904;9.192;2024-03-23T13:12:05;7.30;99.90
16732;DHT22;8484;50.904;9.192;2024-03-23T13:14:51;4.40;99.90
16732;DHT22;8484;50.904;9.192;2024-03-23T13:17:36;4.40;99.90
16732;DHT22;8484;50.904;9.192;2024-03-23T13:20:22;5.10;99.90
16732;DHT22;8484;50.904;9.192;2024-03-23T13:23:06;6.60;99.90
16732;DHT22;8484;50.904;9.192;2024-03-23T13:25:53;7.20;99.90
16732;DHT22;8484;50.904;9.192;2024-03-23T13:28:38;7.70;99.90
16732;DHT22;8484;50.904;9.192;2024-03-23T13:31:25;8.00;99.90
16732;DHT22;8484;50.904;9.192;2024-03-23T13:34:10;9.30;99.90
16732;DHT22;8484;50.904;9.192;2024-03-23T13:36:56;8.80;99.90
16732;DHT22;8484;50.904;9.192;2024-03-23T13:39:42;8.70;99.90
16732;DHT22;8484;50.904;9.192;2024-03-23T13:42:28;8.00;99.90
16732;DHT22;8484;50.904;9.192;2024-03-23T13:45:12;7.40;99.90
16732;DHT22;8484;50.904;9.192;2024-03-23T13:47:59;7.80;99.90
16732;DHT22;8484;50.904;9.192;2024-03-23T13:50:44;8.10;99.90
16732;DHT22;8484;50.904;9.192;2024-03-23T13:53:32;8.30;99.90
16732;DHT22;8484;50.904;9.192;2024-03-23T13:56:16;8.90;99.90
16732;DHT22;8484;50.904;9.192;2024-03-23T13:59:02;8.30;99.90
16732;DHT22;8484;50.904;9.192;2024-03-23T14:01:47;9.40;99.90
16732;DHT22;8484;50.904;9.192;2024-03-23T14:04:34;8.80;99.90
16732;DHT22;8484;50.904;9.192;2024-03-23T14:07:19;8.30;99.90
16732;DHT22;8484;50.904;9.192;2024-03-23T14:10:05;7.50;99.90
16732;DHT22;8484;50.904;9.192;2024-03-23T14:12:50;7.30;99.90
16732;DHT22;8484;50.904;9.192;2024-03-23T14:15:36;7.30;99.90
16732;DHT22;8484;50.904;9.192;2024-03-23T14:18:20;7.10;99.90
16732;DHT22;8484;50.904;9.192;2024-03-23T14:21:08;7.00;99.90
16732;DHT22;8484;50.904;9.192;2024-03-23T14:23:52;6.90;99.90
16732;DHT22;8484;50.904;9.192;2024-03-23T14:26:38;6.90;99.90
16732;DHT22;8484;50.904;9.192;2024-03-23T14:29:22;7.10;99.90
16732;DHT22;8484;50.904;9.192;2024-03-23T14:32:08;7.00;99.90
16732;DHT22;8484;50.904;9.192;2024-03-23T14:34:52;7.00;99.90
16732;DHT22;8484;50.904;9.192;2024-03-23T14:37:40;7.20;99.90
16732;DHT22;8484;50.904;9.192;2024-03-23T14:40:26;7.00;99.90
16732;DHT22;8484;50.904;9.192;2024-03-23T14:43:12;7.20;99.90
16732;DHT22;8484;50.904;9.192;2024-03-23T14:46:06;7.80;99.90
16732;DHT22;8484;50.904;9.192;2024-03-23T14:48:52;8.10;99.90
16732;DHT22;8484;50.904;9.192;2024-03-23T14:51:38;8.10;99.90
16732;DHT22;8484;50.904;9.192;2024-03-23T14:54:25;8.00;99.90
16732;DHT22;8484;50.904;9.192;2024-03-23T14:57:09;8.20;99.90
16732;DHT22;8484;50.904;9.192;2024-03-23T14:59:55;8.20;99.90
16732;DHT22;8484;50.904;9.192;2024-03-23T15:02:40;8.00;99.90
16732;DHT22;8484;50.904;9.192;2024-03-23T15:05:25;7.60;99.90
16732;DHT22;8484;50.904;9.192;2024-03-23T15:08:10;7.20;99.90
16732;DHT22;8484;50.904;9.192;2024-03-23T15:10:58;7.10;99.90
16732;DHT22;8484;50.904;9.192;2024-03-23T15:13:44;6.80;99.90
16732;DHT22;8484;50.904;9.192;2024-03-23T15:16:29;6.80;99.90
16732;DHT22;8484;50.904;9.192;2024-03-23T15:19:14;6.90;99.90
16732;DHT22;8484;50.904;9.192;2024-03-23T15:21:59;7.00;99.90
16732;DHT22;8484;50.904;9.192;2024-03-23T15:24:45;7.00;99.90
16732;DHT22;8484;50.904;9.192;2024-03-23T15:27:31;6.80;99.90
16732;DHT22;8484;50.904;9.192;2024-03-23T15:30:16;7.20;99.90
16732;DHT22;8484;50.904;9.192;2024-03-23T15:33:00;7.50;99.90
16732;DHT22;8484;50.904;9.192;2024-03-23T15:35:46;7.70;99.90
16732;DHT22;8484;50.904;9.192;2024-03-23T15:38:31;8.00;99.90
16732;DHT22;8484;50.904;9.192;2024-03-23T15:41:16;8.00;99.90
16732;DHT22;8484;50.904;9.192;2024-03-23T15:44:03;7.80;99.90
16732;DHT22;8484;50.904;9.192;2024-03-23T15:46:48;8.00;99.90
16732;DHT22;8484;50.904;9.192;2024-03-23T15:49:33;8.00;99.90
16732;DHT22;8484;50.904;9.192;2024-03-23T15:52:18;8.00;99.90
16732;DHT22;8484;50.904;9.192;2024-03-23T15:55:03;8.10;99.90
16732;DHT22;8484;50.904;9.192;2024-03-23T15:57:50;8.00;99.90
16732;DHT22;8484;50.904;9.192;2024-03-23T16:00:37;7.90;99.90
16732;DHT22;8484;50.904;9.192;2024-03-23T16:03:23;7.70;99.90
16732;DHT22;8484;50.904;9.192;2024-03-23T16:06:08;7.70;99.90
16732;DHT22;8484;50.904;9.192;2024-03-23T16:08:54;7.50;99.90
16732;DHT22;8484;50.904;9.192;2024-03-23T16:11:39;7.20;99.90
16732;DHT22;8484;50.904;9.192;2024-03-23T16:14:24;7.20;99.90
16732;DHT22;8484;50.904;9.192;2024-03-23T16:17:11;7.40;99.90
16732;DHT22;8484;50.904;9.192;2024-03-23T16:19:56;7.50;99.90
16732;DHT22;8484;50.904;9.192;2024-03-23T16:22:41;7.50;99.90
16732;DHT22;8484;50.904;9.192;2024-03-23T16:25:26;7.40;99.90
16732;DHT22;8484;50.904;9.192;2024-03-23T16:28:12;7.30;99.90
16732;DHT22;8484;50.904;9.192;2024-03-23T16:30:57;7.30;99.90
16732;DHT22;8484;50.904;9.192;2024-03-23T16:33:44;7.00;99.90
16732;DHT22;8484;50.904;9.192;2024-03-23T16:36:29;6.80;99.90
16732;DHT22;8484;50.904;9.192;2024-03-23T16:39:14;6.80;99.90
16732;DHT22;8484;50.904;9.192;2024-03-23T16:42:01;6.60;99.90
16732;DHT22;8484;50.904;9.192;2024-03-23T16:44:45;6.70;99.90
16732;DHT22;8484;50.904;9.192;2024-03-23T16:47:31;6.40;99.90
16732;DHT22;8484;50.904;9.192;2024-03-23T16:50:19;6.40;99.90
16732;DHT22;8484;50.904;9.192;2024-03-23T16:53:05;6.40;99.90
16732;DHT22;8484;50.904;9.192;2024-03-23T16:55:54;6.40;99.90
16732;DHT22;8484;50.904;9.192;2024-03-23T16:58:42;6.40;99.90
16732;DHT22;8484;50.904;9.192;2024-03-23T17:01:26;6.10;99.90
16732;DHT22;8484;50.904;9.192;2024-03-23T17:04:12;6.10;99.90
16732;DHT22;8484;50.904;9.192;2024-03-23T17:06:58;5.20;99.90
16732;DHT22;8484;50.904;9.192;2024-03-23T17:09:47;5.10;99.90
16732;DHT22;8484;50.904;9.192;2024-03-23T17:12:31;4.90;99.90
16732;DHT22;8484;50.904;9.192;2024-03-23T17:15:24;4.90;99.90
16732;DHT22;8484;50.904;9.192;2024-03-23T17:18:10;4.60;99.90
16732;DHT22;8484;50.904;9.192;2024-03-23T17:20:55;4.40;99.90
16732;DHT22;8484;50.904;9.192;2024-03-23T17:23:42;4.40;99.90
16732;DHT22;8484;50.904;9.192;2024-03-23T17:26:27;4.30;99.90
16732;DHT22;8484;50.904;9.192;2024-03-23T17:29:12;4.20;99.90
16732;DHT22;8484;50.904;9.192;2024-03-23T17:31:58;4.10;99.90
16732;DHT22;8484;50.904;9.192;2024-03-23T17:34:43;4.10;99.90
16732;DHT22;8484;50.904;9.192;2024-03-23T17:37:28;4.20;99.90
16732;DHT22;8484;50.904;9.192;2024-03-23T17:40:15;4.10;99.90
16732;DHT22;8484;50.904;9.192;2024-03-23T17:43:00;3.90;99.90
16732;DHT22;8484;50.904;9.192;2024-03-23T17:45:45;3.90;99.90
16732;DHT22;8484;50.904;9.192;2024-03-23T17:48:31;3.90;99.90
16732;DHT22;8484;50.904;9.192;2024-03-23T17:51:23;3.70;99.90
16732;DHT22;8484;50.904;9.192;2024-03-23T17:54:15;3.60;99.90
16732;DHT22;8484;50.904;9.192;2024-03-23T17:57:04;3.70;99.90
16732;DHT22;8484;50.904;9.192;2024-03-23T17:59:50;3.70;99.90
16732;DHT22;8484;50.904;9.192;2024-03-23T18:02:35;3.50;99.90
16732;DHT22;8484;50.904;9.192;2024-03-23T18:05:21;3.60;99.90
16732;DHT22;8484;50.904;9.192;2024-03-23T18:08:06;3.50;99.90
16732;DHT22;8484;50.904;9.192;2024-03-23T18:10:52;3.40;99.90
16732;DHT22;8484;50.904;9.192;2024-03-23T18:13:39;3.30;99.90
16732;DHT22;8484;50.904;9.192;2024-03-23T18:16:32;3.50;99.90
16732;DHT22;8484;50.904;9.192;2024-03-23T18:19:17;3.60;99.90
16732;DHT22;8484;50.904;9.192;2024-03-23T18:22:05;3.30;99.90
16732;DHT22;8484;50.904;9.192;2024-03-23T18:24:49;3.50;99.90
16732;DHT22;8484;50.904;9.192;2024-03-23T18:27:35;3.50;99.90
16732;DHT22;8484;50.904;9.192;2024-03-23T18:30:24;3.40;99.90
16732;DHT22;8484;50.904;9.192;2024-03-23T18:33:09;3.30;99.90
16732;DHT22;8484;50.904;9.192;2024-03-23T18:35:54;3.40;99.90
16732;DHT22;8484;50.904;9.192;2024-03-23T18:38:46;3.30;99.90
16732;DHT22;8484;50.904;9.192;2024-03-23T18:41:37;3.10;99.90
16732;DHT22;8484;50.904;9.192;2024-03-23T18:44:23;3.20;99.90
16732;DHT22;8484;50.904;9.192;2024-03-23T18:47:08;3.00;99.90
16732;DHT22;8484;50.904;9.192;2024-03-23T18:49:54;2.90;99.90